createdAt,value
2023-02-20T00:01:49.140Z,2.78
2023-02-20T00:04:17.310Z,2.78
2023-02-20T00:06:45.479Z,2.80
2023-02-20T00:09:14.120Z,2.80
2023-02-20T00:11:42.352Z,2.76
2023-02-20T00:14:10.520Z,2.78
2023-02-20T00:16:38.597Z,2.90
2023-02-20T00:19:06.685Z,2.90
2023-02-20T00:21:34.794Z,2.86
2023-02-20T00:24:03.219Z,2.90
2023-02-20T00:26:31.389Z,2.90
2023-02-20T00:28:59.763Z,2.90
2023-02-20T00:31:27.778Z,2.90
2023-02-20T00:33:56.425Z,2.90
2023-02-20T00:36:24.708Z,2.90
2023-02-20T00:38:52.825Z,2.80
2023-02-20T00:41:22.284Z,2.78
2023-02-20T00:43:50.562Z,2.80
2023-02-20T00:46:18.854Z,2.90
2023-02-20T00:48:47.113Z,2.88
2023-02-20T00:51:35.868Z,2.90
2023-02-20T00:54:04.975Z,2.90
2023-02-20T00:56:33.456Z,2.90
2023-02-20T00:59:01.520Z,2.90
2023-02-20T01:01:30.220Z,2.84
2023-02-20T01:03:58.233Z,2.90
2023-02-20T01:06:26.451Z,2.98
2023-02-20T01:08:54.729Z,2.90
2023-02-20T01:11:22.969Z,2.92
2023-02-20T01:13:51.025Z,3.00
2023-02-20T01:16:19.284Z,2.90
2023-02-20T01:18:50.298Z,2.90
2023-02-20T01:21:19.309Z,2.90
2023-02-20T01:23:47.420Z,2.90
2023-02-20T01:26:15.642Z,2.82
2023-02-20T01:28:47.904Z,2.88
2023-02-20T01:31:15.902Z,2.80
2023-02-20T01:33:44.760Z,2.74
2023-02-20T01:36:13.194Z,2.60
2023-02-20T01:38:41.635Z,2.60
2023-02-20T01:41:10.917Z,2.60
2023-02-20T01:43:38.854Z,2.40
2023-02-20T01:46:28.735Z,2.52
2023-02-20T01:49:03.251Z,2.52
2023-02-20T01:51:33.260Z,2.50
2023-02-20T01:54:01.800Z,2.36
2023-02-20T01:56:29.874Z,2.50
2023-02-20T01:58:57.939Z,2.40
2023-02-20T02:01:26.226Z,2.40
2023-02-20T02:03:57.489Z,2.24
2023-02-20T02:06:25.933Z,2.30
2023-02-20T02:08:54.132Z,2.20
2023-02-20T02:11:23.738Z,2.10
2023-02-20T02:13:51.917Z,2.26
2023-02-20T02:16:42.144Z,2.10
2023-02-20T02:19:32.179Z,2.14
2023-02-20T02:22:26.892Z,2.22
2023-02-20T02:25:07.376Z,2.20
2023-02-20T02:27:47.593Z,2.20
2023-02-20T02:30:51.133Z,2.20
2023-02-20T02:33:29.669Z,2.16
2023-02-20T02:36:12.280Z,2.20
2023-02-20T02:38:53.583Z,2.10
2023-02-20T02:41:36.234Z,2.12
2023-02-20T02:44:19.868Z,2.10
2023-02-20T02:46:55.448Z,2.10
2023-02-20T02:49:34.437Z,2.10
2023-02-20T02:52:04.355Z,2.12
2023-02-20T02:54:32.623Z,2.08
2023-02-20T02:57:21.301Z,2.10
2023-02-20T02:59:52.443Z,2.04
2023-02-20T03:02:22.271Z,1.90
2023-02-20T03:04:51.948Z,1.84
2023-02-20T03:07:20.054Z,1.90
2023-02-20T03:10:08.216Z,1.90
2023-02-20T03:12:37.974Z,1.82
2023-02-20T03:15:28.979Z,1.82
2023-02-20T03:18:10.963Z,1.70
2023-02-20T03:20:47.031Z,1.62
2023-02-20T03:23:26.584Z,1.76
2023-02-20T03:25:56.949Z,1.74
2023-02-20T03:28:28.067Z,1.74
2023-02-20T03:31:15.666Z,1.70
2023-02-20T03:34:08.643Z,1.70
2023-02-20T03:37:00.980Z,1.64
2023-02-20T03:39:51.071Z,1.70
2023-02-20T03:42:38.285Z,1.62
2023-02-20T03:45:12.096Z,1.60
2023-02-20T03:47:42.238Z,1.70
2023-02-20T03:50:29.479Z,1.70
2023-02-20T03:52:58.115Z,1.70
2023-02-20T03:55:27.004Z,1.60
2023-02-20T03:57:58.046Z,1.70
2023-02-20T04:00:29.180Z,1.60
2023-02-20T04:02:59.838Z,1.50
2023-02-20T04:05:32.625Z,1.54
2023-02-20T04:08:28.127Z,1.50
2023-02-20T04:11:00.081Z,1.60
2023-02-20T04:13:28.329Z,1.60
2023-02-20T04:15:58.795Z,1.52
2023-02-20T04:18:28.401Z,1.66
2023-02-20T04:20:57.416Z,1.64
2023-02-20T04:23:46.258Z,1.60
2023-02-20T04:26:17.835Z,1.60
2023-02-20T04:28:47.162Z,1.66
2023-02-20T04:31:16.877Z,1.62
2023-02-20T04:33:45.168Z,1.60
2023-02-20T04:36:17.665Z,1.58
2023-02-20T04:38:46.392Z,1.60
2023-02-20T04:41:16.592Z,1.62
2023-02-20T04:43:44.640Z,1.60
2023-02-20T04:46:13.805Z,1.58
2023-02-20T04:48:42.510Z,1.52
2023-02-20T04:51:11.322Z,1.60
2023-02-20T04:53:39.687Z,1.50
2023-02-20T04:56:07.765Z,1.50
2023-02-20T04:58:40.748Z,1.50
2023-02-20T05:01:17.959Z,1.50
2023-02-20T05:03:46.224Z,1.44
2023-02-20T05:06:14.649Z,1.50
2023-02-20T05:08:42.752Z,1.52
2023-02-20T05:11:10.785Z,1.60
2023-02-20T05:13:38.832Z,1.62
2023-02-20T05:16:07.473Z,1.60
2023-02-20T05:18:35.786Z,1.60
2023-02-20T05:21:33.235Z,1.70
2023-02-20T05:24:01.730Z,1.70
2023-02-20T05:26:30.893Z,1.60
2023-02-20T05:28:58.992Z,1.70
2023-02-20T05:31:27.129Z,1.70
2023-02-20T05:33:55.198Z,1.78
2023-02-20T05:36:23.362Z,1.80
2023-02-20T05:38:51.352Z,1.74
2023-02-20T05:41:19.430Z,1.78
2023-02-20T05:43:48.399Z,1.80
2023-02-20T05:46:16.759Z,1.80
2023-02-20T05:48:49.827Z,1.90
2023-02-20T05:51:25.911Z,1.80
2023-02-20T05:53:53.873Z,1.90
2023-02-20T05:56:22.008Z,1.90
2023-02-20T05:58:50.220Z,2.00
2023-02-20T06:01:25.955Z,2.00
2023-02-20T06:03:54.078Z,2.00
2023-02-20T06:06:22.260Z,2.00
2023-02-20T06:08:50.304Z,2.00
2023-02-20T06:11:18.382Z,2.10
2023-02-20T06:13:47.183Z,1.98
2023-02-20T06:16:24.687Z,2.10
2023-02-20T06:18:53.093Z,2.12
2023-02-20T06:21:23.374Z,2.14
2023-02-20T06:23:52.105Z,2.10
2023-02-20T06:26:22.779Z,2.10
2023-02-20T06:28:50.956Z,2.10
2023-02-20T06:31:24.037Z,2.20
2023-02-20T06:33:52.802Z,2.10
2023-02-20T06:36:26.490Z,2.10
2023-02-20T06:38:57.443Z,2.10
2023-02-20T06:41:26.266Z,2.06
2023-02-20T06:43:54.522Z,2.04
2023-02-20T06:46:23.313Z,2.00
2023-02-20T06:48:53.287Z,2.04
2023-02-20T06:51:26.597Z,2.12
2023-02-20T06:53:54.617Z,2.00
2023-02-20T06:56:25.581Z,2.00
2023-02-20T06:58:55.325Z,2.00
2023-02-20T07:01:27.217Z,2.10
2023-02-20T07:03:55.834Z,2.10
2023-02-20T07:06:24.380Z,2.10
2023-02-20T07:08:52.572Z,2.22
2023-02-20T07:11:21.554Z,2.44
2023-02-20T07:13:49.909Z,2.88
2023-02-20T07:16:18.007Z,3.60
2023-02-20T07:18:46.421Z,4.36
2023-02-20T07:21:14.457Z,4.98
2023-02-20T07:23:42.479Z,5.34
2023-02-20T07:26:24.055Z,5.64
2023-02-20T07:28:54.610Z,6.00
2023-02-20T07:31:23.100Z,6.36
2023-02-20T07:33:51.283Z,6.40
2023-02-20T07:36:20.157Z,6.40
2023-02-20T07:38:58.379Z,6.42
2023-02-20T07:41:29.751Z,6.60
2023-02-20T07:43:57.904Z,6.40
2023-02-20T07:46:26.058Z,5.98
2023-02-20T07:48:54.695Z,5.70
2023-02-20T07:51:22.805Z,5.40
2023-02-20T07:53:51.335Z,5.20
2023-02-20T07:56:19.485Z,5.00
2023-02-20T07:58:47.984Z,5.02
2023-02-20T08:01:16.178Z,4.90
2023-02-20T08:03:44.284Z,4.70
2023-02-20T08:06:13.015Z,4.60
2023-02-20T08:08:41.362Z,4.70
2023-02-20T08:11:10.358Z,4.60
2023-02-20T08:13:38.721Z,4.60
2023-02-20T08:16:07.128Z,4.70
2023-02-20T08:18:37.610Z,4.72
2023-02-20T08:21:05.797Z,4.88
2023-02-20T08:23:33.917Z,5.00
2023-02-20T08:26:04.067Z,5.20
2023-02-20T08:28:32.350Z,5.30
2023-02-20T08:31:00.451Z,5.30
2023-02-20T08:33:28.473Z,5.20
2023-02-20T08:35:57.549Z,5.36
2023-02-20T08:38:34.528Z,5.42
2023-02-20T08:41:07.824Z,5.60
2023-02-20T08:43:36.664Z,5.74
2023-02-20T08:46:08.163Z,5.80
2023-02-20T08:48:36.645Z,5.80
2023-02-20T08:51:05.819Z,5.70
2023-02-20T08:53:34.349Z,5.88
2023-02-20T08:56:02.387Z,6.00
2023-02-20T08:58:30.504Z,5.90
2023-02-20T09:00:58.679Z,6.16
2023-02-20T09:03:27.492Z,6.30
2023-02-20T09:05:55.508Z,6.40
2023-02-20T09:08:23.554Z,6.40
2023-02-20T09:10:51.936Z,6.40
2023-02-20T09:13:20.102Z,6.40
2023-02-20T09:15:48.319Z,6.50
2023-02-20T09:18:16.645Z,6.74
2023-02-20T09:20:44.852Z,6.60
2023-02-20T09:23:12.988Z,6.68
2023-02-20T09:25:41.124Z,6.70
2023-02-20T09:28:09.300Z,6.70
2023-02-20T09:30:37.338Z,6.70
2023-02-20T09:33:05.479Z,6.80
2023-02-20T09:35:33.653Z,6.76
2023-02-20T09:38:02.149Z,6.66
2023-02-20T09:40:31.962Z,7.02
2023-02-20T09:43:15.671Z,7.28
2023-02-20T09:46:08.524Z,7.28
2023-02-20T09:49:04.745Z,7.20
2023-02-20T09:51:38.914Z,7.38
2023-02-20T09:54:23.440Z,7.58
2023-02-20T09:56:57.485Z,7.70
2023-02-20T09:59:29.602Z,7.98
2023-02-20T10:02:09.367Z,8.10
2023-02-20T10:05:00.009Z,8.32
2023-02-20T10:07:47.006Z,8.66
2023-02-20T10:10:26.920Z,8.60
2023-02-20T10:13:29.892Z,8.80
2023-02-20T10:16:19.122Z,8.90
2023-02-20T10:18:54.616Z,9.18
2023-02-20T10:21:50.124Z,9.28
2023-02-20T10:24:40.885Z,9.20
2023-02-20T10:27:27.489Z,9.54
2023-02-20T10:29:57.828Z,10.06
2023-02-20T10:32:30.439Z,10.54
2023-02-20T10:35:18.712Z,11.08
2023-02-20T10:37:49.777Z,11.94
2023-02-20T10:40:28.564Z,12.60
2023-02-20T10:43:06.290Z,12.92
2023-02-20T10:45:47.717Z,13.20
2023-02-20T10:48:15.880Z,13.82
2023-02-20T10:50:50.262Z,14.58
2023-02-20T10:53:41.479Z,14.90
2023-02-20T10:56:32.866Z,15.26
2023-02-20T10:59:21.554Z,15.12
2023-02-20T11:01:52.259Z,15.94
2023-02-20T11:04:29.290Z,16.08
2023-02-20T11:07:02.553Z,15.98
2023-02-20T11:09:30.844Z,15.84
2023-02-20T11:11:59.585Z,16.10
2023-02-20T11:14:46.963Z,16.36
2023-02-20T11:17:19.521Z,17.10
2023-02-20T11:19:49.546Z,15.98
2023-02-20T11:22:18.620Z,16.20
2023-02-20T11:24:46.667Z,16.36
2023-02-20T11:27:21.978Z,17.22
2023-02-20T11:30:32.254Z,17.24
2023-02-20T11:33:14.367Z,17.90
2023-02-20T11:35:43.144Z,18.46
2023-02-20T11:38:23.550Z,18.38
2023-02-20T11:40:55.123Z,19.12
2023-02-20T11:43:26.395Z,18.38
2023-02-20T11:46:21.606Z,18.82
2023-02-20T11:49:02.881Z,19.30
2023-02-20T11:51:36.825Z,19.54
2023-02-20T11:54:11.224Z,19.70
2023-02-20T11:56:39.255Z,19.72
2023-02-20T11:59:30.639Z,19.86
2023-02-20T12:02:25.902Z,19.10
2023-02-20T12:05:13.663Z,19.02
2023-02-20T12:07:53.988Z,18.98
2023-02-20T12:10:48.678Z,19.40
2023-02-20T12:13:17.349Z,19.64
2023-02-20T12:15:52.132Z,19.58
2023-02-20T12:18:38.772Z,19.86
2023-02-20T12:21:34.142Z,19.06
2023-02-20T12:24:08.886Z,18.26
2023-02-20T12:26:44.690Z,18.02
2023-02-20T12:29:29.350Z,18.26
2023-02-20T12:32:34.876Z,17.44
2023-02-20T12:35:02.990Z,17.46
2023-02-20T12:37:39.169Z,16.52
2023-02-20T12:40:26.653Z,15.84
2023-02-20T12:43:03.755Z,14.76
2023-02-20T12:45:59.868Z,13.80
2023-02-20T12:48:35.120Z,12.28
2023-02-20T12:51:06.584Z,11.86
2023-02-20T12:53:49.095Z,11.70
2023-02-20T12:56:24.064Z,11.50
2023-02-20T12:58:58.327Z,11.24
2023-02-20T13:01:38.888Z,11.14
2023-02-20T13:04:27.436Z,10.90
2023-02-20T13:07:01.430Z,10.98
2023-02-20T13:09:55.037Z,10.80
2023-02-20T13:12:23.614Z,10.72
2023-02-20T13:15:24.045Z,10.62
2023-02-20T13:17:55.135Z,10.62
2023-02-20T13:20:28.627Z,10.60
2023-02-20T13:23:25.120Z,10.34
2023-02-20T13:25:53.748Z,10.20
2023-02-20T13:28:33.904Z,10.02
2023-02-20T13:31:29.695Z,10.00
2023-02-20T13:34:07.037Z,10.00
2023-02-20T13:36:35.680Z,10.10
2023-02-20T13:39:19.126Z,9.90
2023-02-20T13:41:56.325Z,9.82
2023-02-20T13:44:36.641Z,9.70
2023-02-20T13:47:28.509Z,9.62
2023-02-20T13:49:59.009Z,9.52
2023-02-20T13:52:30.126Z,9.50
2023-02-20T13:55:09.941Z,9.24
2023-02-20T13:57:57.658Z,9.14
2023-02-20T14:00:27.546Z,8.90
2023-02-20T14:02:55.726Z,9.00
2023-02-20T14:05:29.509Z,8.96
2023-02-20T14:07:58.585Z,8.90
2023-02-20T14:10:37.263Z,9.00
2023-02-20T14:13:30.795Z,8.90
2023-02-20T14:16:06.710Z,9.00
2023-02-20T14:18:35.755Z,8.90
2023-02-20T14:21:11.119Z,8.90
2023-02-20T14:23:39.323Z,8.86
2023-02-20T14:26:21.006Z,8.82
2023-02-20T14:28:50.778Z,8.70
2023-02-20T14:31:23.697Z,8.70
2023-02-20T14:33:57.319Z,8.76
2023-02-20T14:36:28.405Z,8.70
2023-02-20T14:39:26.760Z,8.64
2023-02-20T14:41:59.243Z,8.60
2023-02-20T14:44:27.682Z,8.50
2023-02-20T14:47:02.885Z,8.60
2023-02-20T14:49:31.733Z,8.42
2023-02-20T14:52:11.751Z,8.40
2023-02-20T14:54:41.250Z,8.20
2023-02-20T14:57:14.873Z,8.10
2023-02-20T14:59:43.125Z,8.10
2023-02-20T15:02:32.657Z,8.18
2023-02-20T15:05:07.535Z,8.04
2023-02-20T15:07:35.666Z,8.00
2023-02-20T15:10:05.875Z,7.90
2023-02-20T15:12:35.823Z,7.90
2023-02-20T15:15:14.033Z,7.90
2023-02-20T15:17:43.241Z,7.84
2023-02-20T15:20:18.376Z,7.90
2023-02-20T15:22:46.746Z,7.88
2023-02-20T15:25:30.775Z,7.90
2023-02-20T15:28:14.135Z,7.80
2023-02-20T15:31:10.446Z,7.78
2023-02-20T15:33:41.074Z,7.78
2023-02-20T15:36:13.941Z,7.80
2023-02-20T15:38:42.173Z,7.66
2023-02-20T15:41:10.236Z,7.60
2023-02-20T15:43:47.128Z,7.56
2023-02-20T15:46:17.624Z,7.56
2023-02-20T15:48:46.204Z,7.50
2023-02-20T15:51:17.953Z,7.48
2023-02-20T15:53:46.132Z,7.40
2023-02-20T15:56:14.802Z,7.38
2023-02-20T15:58:43.688Z,7.38
2023-02-20T16:01:12.689Z,7.40
2023-02-20T16:03:55.899Z,7.40
2023-02-20T16:06:24.006Z,7.30
2023-02-20T16:08:52.421Z,7.32
2023-02-20T16:11:22.301Z,7.40
2023-02-20T16:13:56.244Z,7.30
2023-02-20T16:16:48.366Z,7.34
2023-02-20T16:19:24.043Z,7.28
2023-02-20T16:21:59.677Z,7.40
2023-02-20T16:24:28.157Z,7.42
2023-02-20T16:26:56.349Z,7.20
2023-02-20T16:29:36.378Z,7.28
2023-02-20T16:32:04.609Z,7.20
2023-02-20T16:34:33.511Z,7.30
2023-02-20T16:37:02.269Z,7.38
2023-02-20T16:39:30.382Z,7.40
2023-02-20T16:41:58.653Z,7.40
2023-02-20T16:44:38.942Z,7.40
2023-02-20T16:47:13.471Z,7.40
2023-02-20T16:49:41.564Z,7.38
2023-02-20T16:52:21.374Z,7.46
2023-02-20T16:54:49.781Z,7.50
2023-02-20T16:57:18.420Z,7.60
2023-02-20T16:59:46.421Z,7.60
2023-02-20T17:02:16.611Z,7.60
2023-02-20T17:04:44.644Z,7.56
2023-02-20T17:07:12.793Z,7.50
2023-02-20T17:09:46.524Z,7.50
2023-02-20T17:12:17.281Z,7.50
2023-02-20T17:14:45.876Z,7.52
2023-02-20T17:17:14.140Z,7.52
2023-02-20T17:19:43.408Z,7.60
2023-02-20T17:22:12.427Z,7.64
2023-02-20T17:24:42.458Z,7.70
2023-02-20T17:27:11.308Z,7.80
2023-02-20T17:29:41.672Z,7.86
2023-02-20T17:32:09.696Z,7.90
2023-02-20T17:34:37.729Z,7.96
2023-02-20T17:37:06.648Z,7.94
2023-02-20T17:39:34.988Z,7.90
2023-02-20T17:42:03.218Z,7.80
2023-02-20T17:44:31.858Z,7.60
2023-02-20T17:47:00.361Z,7.46
2023-02-20T17:49:28.514Z,7.40
2023-02-20T17:52:00.422Z,7.40
2023-02-20T17:54:29.342Z,7.40
2023-02-20T17:56:57.552Z,7.30
2023-02-20T17:59:25.737Z,7.30
2023-02-20T18:01:54.307Z,7.30
2023-02-20T18:04:22.516Z,7.20
2023-02-20T18:06:50.588Z,7.20
2023-02-20T18:09:18.993Z,7.20
2023-02-20T18:11:46.985Z,7.10
2023-02-20T18:14:15.328Z,7.10
2023-02-20T18:16:43.371Z,7.00
2023-02-20T18:19:13.902Z,7.00
2023-02-20T18:21:42.888Z,7.04
2023-02-20T18:24:11.356Z,7.02
2023-02-20T18:26:39.755Z,6.98
2023-02-20T18:29:07.815Z,6.90
2023-02-20T18:31:36.306Z,6.90
2023-02-20T18:34:07.741Z,6.90
2023-02-20T18:36:35.845Z,6.90
2023-02-20T18:39:05.341Z,6.90
2023-02-20T18:41:34.780Z,6.88
2023-02-20T18:44:02.888Z,6.90
2023-02-20T18:46:35.633Z,6.80
2023-02-20T18:49:06.950Z,6.82
2023-02-20T18:51:36.517Z,6.80
2023-02-20T18:54:05.537Z,6.80
2023-02-20T18:56:33.843Z,6.70
2023-02-20T18:59:03.864Z,6.70
2023-02-20T19:01:34.065Z,6.70
2023-02-20T19:04:03.178Z,6.64
2023-02-20T19:06:34.331Z,6.60
2023-02-20T19:09:02.924Z,6.60
2023-02-20T19:11:31.058Z,6.50
2023-02-20T19:13:59.146Z,6.50
2023-02-20T19:16:27.299Z,6.50
2023-02-20T19:18:55.537Z,6.50
2023-02-20T19:21:23.504Z,6.52
2023-02-20T19:23:51.540Z,6.50
2023-02-20T19:26:19.600Z,6.50
2023-02-20T19:28:49.589Z,6.46
2023-02-20T19:31:19.020Z,6.40
2023-02-20T19:33:49.864Z,6.40
2023-02-20T19:36:17.906Z,6.30
2023-02-20T19:38:45.963Z,6.20
2023-02-20T19:41:18.836Z,6.10
2023-02-20T19:43:47.031Z,6.10
2023-02-20T19:46:24.111Z,5.98
2023-02-20T19:48:52.077Z,6.00
2023-02-20T19:51:21.727Z,6.00
2023-02-20T19:53:50.227Z,5.90
2023-02-20T19:56:18.291Z,5.90
2023-02-20T19:58:46.461Z,5.90
2023-02-20T20:01:16.050Z,6.00
2023-02-20T20:03:47.665Z,6.10
2023-02-20T20:06:17.024Z,6.20
2023-02-20T20:09:10.216Z,6.30
2023-02-20T20:11:33.272Z,6.40
2023-02-20T20:14:01.424Z,6.42
2023-02-20T20:16:29.757Z,6.38
2023-02-20T20:18:58.536Z,6.30
2023-02-20T20:21:26.555Z,6.20
2023-02-20T20:23:54.674Z,6.10
2023-02-20T20:26:30.118Z,5.90
2023-02-20T20:28:58.269Z,5.74
2023-02-20T20:31:27.668Z,5.66
2023-02-20T20:33:55.997Z,5.50
2023-02-20T20:36:24.032Z,5.40
2023-02-20T20:38:52.023Z,5.30
2023-02-20T20:41:20.285Z,5.20
2023-02-20T20:43:48.330Z,5.20
2023-02-20T20:46:16.771Z,5.10
2023-02-20T20:48:45.215Z,5.10
2023-02-20T20:51:15.204Z,5.00
2023-02-20T20:53:44.651Z,4.98
2023-02-20T20:56:13.004Z,4.90
2023-02-20T20:58:41.209Z,4.88
2023-02-20T21:01:09.163Z,4.88
2023-02-20T21:03:37.184Z,4.80
2023-02-20T21:06:05.369Z,4.78
2023-02-20T21:08:33.954Z,4.70
2023-02-20T21:11:01.870Z,4.70
2023-02-20T21:13:29.805Z,4.68
2023-02-20T21:15:57.852Z,4.70
2023-02-20T21:18:25.826Z,4.70
2023-02-20T21:20:53.759Z,4.70
2023-02-20T21:23:21.684Z,4.84
2023-02-20T21:25:49.564Z,5.00
2023-02-20T21:28:17.498Z,5.00
2023-02-20T21:30:47.708Z,5.06
2023-02-20T21:33:15.699Z,5.00
2023-02-20T21:35:43.618Z,4.92
2023-02-20T21:38:11.550Z,4.80
2023-02-20T21:40:39.465Z,4.70
2023-02-20T21:43:42.840Z,4.60
2023-02-20T21:46:11.012Z,4.50
2023-02-20T21:48:38.964Z,4.50
2023-02-20T21:51:06.874Z,4.60
2023-02-20T21:53:34.980Z,4.60
2023-02-20T21:56:02.991Z,4.68
2023-02-20T21:58:49.391Z,4.64
2023-02-20T22:01:17.315Z,4.64
2023-02-20T22:03:45.185Z,4.70
2023-02-20T22:06:13.127Z,4.70
2023-02-20T22:08:59.801Z,4.60
2023-02-20T22:11:46.472Z,4.60
2023-02-20T22:14:33.203Z,4.70
2023-02-20T22:17:20.153Z,4.60
2023-02-20T22:20:07.096Z,4.70
2023-02-20T22:22:53.920Z,4.70
2023-02-20T22:25:40.836Z,4.90
2023-02-20T22:28:27.792Z,5.24
2023-02-20T22:31:14.982Z,5.66
2023-02-20T22:34:01.845Z,6.00
2023-02-20T22:36:48.678Z,6.36
2023-02-20T22:39:36.063Z,6.80
2023-02-20T22:42:29.652Z,7.20
2023-02-20T22:45:21.767Z,7.60
2023-02-20T22:48:08.357Z,7.88
2023-02-20T22:50:54.864Z,8.10
2023-02-20T22:53:41.783Z,8.24
2023-02-20T22:56:38.235Z,8.30
2023-02-20T22:59:25.176Z,8.30
2023-02-20T23:02:11.865Z,7.80
2023-02-20T23:04:58.321Z,7.20
2023-02-20T23:07:47.046Z,7.30
2023-02-20T23:10:34.188Z,7.68
2023-02-20T23:13:21.040Z,8.00
2023-02-20T23:16:07.572Z,8.20
2023-02-20T23:18:54.301Z,8.06
2023-02-20T23:21:40.676Z,7.72
2023-02-20T23:24:27.332Z,7.70
2023-02-20T23:27:14.426Z,7.80
2023-02-20T23:30:01.154Z,8.00
2023-02-20T23:32:47.567Z,8.28
2023-02-20T23:35:35.449Z,8.50
2023-02-20T23:38:22.646Z,8.70
2023-02-20T23:41:09.157Z,8.80
2023-02-20T23:43:55.739Z,8.86
2023-02-20T23:46:42.265Z,8.98
2023-02-20T23:49:29.122Z,9.00
2023-02-20T23:52:16.831Z,8.84
2023-02-20T23:55:04.539Z,8.50
2023-02-20T23:57:51.178Z,8.18
